createdAt,value
2019-05-21T00:00:52.421Z,977.16
2019-05-21T00:01:52.275Z,977.17
2019-05-21T00:02:52.197Z,977.18
2019-05-21T00:03:53.160Z,977.21
2019-05-21T00:04:52.018Z,977.24
2019-05-21T00:05:51.940Z,977.20
2019-05-21T00:06:52.840Z,977.20
2019-05-21T00:07:51.772Z,977.18
2019-05-21T00:08:51.658Z,977.24
2019-05-21T00:09:52.610Z,977.19
2019-05-21T00:10:51.510Z,977.18
2019-05-21T00:11:51.402Z,977.17
2019-05-21T00:12:51.320Z,977.15
2019-05-21T00:13:51.368Z,977.18
2019-05-21T00:14:51.180Z,977.20
2019-05-21T00:15:52.074Z,977.17
2019-05-21T00:16:50.970Z,977.19
2019-05-21T00:17:50.901Z,977.23
2019-05-21T00:18:50.829Z,977.23
2019-05-21T00:19:50.716Z,977.20
2019-05-21T00:20:50.636Z,977.22
2019-05-21T00:21:51.554Z,977.25
2019-05-21T00:22:50.459Z,977.29
2019-05-21T00:23:50.383Z,977.31
2019-05-21T00:24:50.390Z,977.42
2019-05-21T00:25:50.189Z,977.35
2019-05-21T00:26:50.124Z,977.37
2019-05-21T00:27:51.046Z,977.37
2019-05-21T00:28:49.935Z,977.37
2019-05-21T00:29:49.854Z,977.33
2019-05-21T00:30:49.759Z,977.40
2019-05-21T00:31:49.684Z,977.40
2019-05-21T00:32:49.584Z,977.39
2019-05-21T00:33:50.530Z,977.39
2019-05-21T00:34:49.422Z,977.46
2019-05-21T00:35:49.324Z,977.41
2019-05-21T00:36:49.231Z,977.39
2019-05-21T00:37:49.196Z,977.42
2019-05-21T00:38:51.961Z,977.47
2019-05-21T00:39:49.993Z,977.44
2019-05-21T00:40:48.894Z,977.39
2019-05-21T00:41:48.803Z,977.45
2019-05-21T00:42:48.764Z,977.41
2019-05-21T00:43:48.633Z,977.43
2019-05-21T00:44:48.546Z,977.41
2019-05-21T00:45:49.468Z,977.48
2019-05-21T00:46:48.384Z,977.40
2019-05-21T00:47:48.300Z,977.41
2019-05-21T00:48:48.263Z,977.46
2019-05-21T00:49:48.122Z,977.48
2019-05-21T00:50:48.034Z,977.44
2019-05-21T00:51:48.963Z,977.44
2019-05-21T00:52:47.855Z,977.46
2019-05-21T00:53:47.763Z,977.41
2019-05-21T00:54:47.689Z,977.45
2019-05-21T00:55:49.761Z,977.53
2019-05-21T00:56:47.501Z,977.47
2019-05-21T00:57:48.423Z,977.55
2019-05-21T00:58:47.341Z,977.47
2019-05-21T00:59:47.246Z,977.47
2019-05-21T01:00:47.158Z,977.53
2019-05-21T01:01:47.073Z,977.53
2019-05-21T01:02:46.995Z,977.52
2019-05-21T01:03:47.921Z,977.56
2019-05-21T01:04:59.711Z,977.56
2019-05-21T01:05:46.715Z,977.59
2019-05-21T01:06:46.653Z,977.59
2019-05-21T01:07:46.641Z,977.58
2019-05-21T01:08:46.473Z,977.54
2019-05-21T01:09:47.381Z,977.55
2019-05-21T01:10:46.293Z,977.59
2019-05-21T01:11:46.205Z,977.54
2019-05-21T01:12:46.110Z,977.50
2019-05-21T01:13:46.025Z,977.55
2019-05-21T01:14:45.934Z,977.53
2019-05-21T01:15:46.850Z,977.46
2019-05-21T01:16:45.761Z,977.54
2019-05-21T01:17:48.740Z,977.57
2019-05-21T01:18:45.593Z,977.51
2019-05-21T01:19:45.535Z,977.56
2019-05-21T01:20:45.444Z,977.51
2019-05-21T01:21:46.336Z,977.46
2019-05-21T01:22:45.268Z,977.48
2019-05-21T01:23:45.157Z,977.51
2019-05-21T01:24:45.078Z,977.56
2019-05-21T01:25:44.972Z,977.50
2019-05-21T01:26:44.894Z,977.52
2019-05-21T01:27:45.837Z,977.53
2019-05-21T01:28:44.716Z,977.54
2019-05-21T01:29:44.633Z,977.61
2019-05-21T01:30:44.554Z,977.60
2019-05-21T01:31:44.457Z,977.62
2019-05-21T01:32:44.427Z,977.57
2019-05-21T01:33:45.293Z,977.59
2019-05-21T01:34:44.203Z,977.66
2019-05-21T01:35:44.113Z,977.66
2019-05-21T01:36:44.023Z,977.62
2019-05-21T01:37:43.935Z,977.65
2019-05-21T01:38:43.856Z,977.60
2019-05-21T01:39:44.808Z,977.71
2019-05-21T01:40:43.696Z,977.66
2019-05-21T01:41:43.642Z,977.70
2019-05-21T01:42:43.514Z,977.70
2019-05-21T01:43:43.413Z,977.65
2019-05-21T01:44:43.322Z,977.69
2019-05-21T01:45:44.257Z,977.69
2019-05-21T01:46:43.166Z,977.70
2019-05-21T01:47:43.085Z,977.63
2019-05-21T01:48:42.976Z,977.67
2019-05-21T01:49:42.912Z,977.70
2019-05-21T01:50:42.843Z,977.68
2019-05-21T01:51:43.728Z,977.67
2019-05-21T01:52:42.660Z,977.65
2019-05-21T01:53:42.554Z,977.66
2019-05-21T01:54:42.464Z,977.65
2019-05-21T01:55:42.380Z,977.63
2019-05-21T01:56:42.276Z,977.64
2019-05-21T01:57:43.202Z,977.58
2019-05-21T01:58:42.101Z,977.64
2019-05-21T01:59:42.036Z,977.69
2019-05-21T02:00:41.935Z,977.64
2019-05-21T02:01:41.840Z,977.71
2019-05-21T02:02:41.766Z,977.67
2019-05-21T02:03:42.703Z,977.77
2019-05-21T02:04:41.603Z,977.74
2019-05-21T02:05:41.504Z,977.79
2019-05-21T02:06:41.421Z,977.81
2019-05-21T02:07:41.333Z,977.79
2019-05-21T02:08:41.254Z,977.78
2019-05-21T02:09:42.191Z,977.83
2019-05-21T02:10:41.099Z,977.80
2019-05-21T02:11:40.972Z,977.78
2019-05-21T02:12:40.887Z,977.79
2019-05-21T02:13:40.794Z,977.82
2019-05-21T02:14:40.722Z,977.79
2019-05-21T02:15:41.645Z,977.81
2019-05-21T02:16:40.538Z,977.81
2019-05-21T02:17:40.458Z,977.76
2019-05-21T02:18:40.405Z,977.82
2019-05-21T02:19:40.289Z,977.76
2019-05-21T02:20:40.191Z,977.77
2019-05-21T02:21:41.120Z,977.77
2019-05-21T02:22:40.023Z,977.76
2019-05-21T02:23:39.945Z,977.76
2019-05-21T02:24:39.849Z,977.81
2019-05-21T02:25:39.820Z,977.79
2019-05-21T02:26:39.675Z,977.81
2019-05-21T02:27:40.618Z,977.83
2019-05-21T02:28:39.505Z,977.82
2019-05-21T02:29:39.413Z,977.87
2019-05-21T02:30:39.319Z,977.95
2019-05-21T02:31:39.257Z,977.96
2019-05-21T02:32:39.173Z,977.99
2019-05-21T02:33:40.071Z,977.96
2019-05-21T02:34:38.972Z,977.95
2019-05-21T02:35:53.471Z,977.95
2019-05-21T02:36:38.822Z,978.02
2019-05-21T02:37:38.716Z,978.01
2019-05-21T02:38:38.657Z,978.02
2019-05-21T02:39:39.573Z,978.00
2019-05-21T02:40:38.494Z,978.02
2019-05-21T02:41:38.416Z,978.03
2019-05-21T02:42:38.278Z,978.03
2019-05-21T02:43:38.199Z,978.02
2019-05-21T02:44:38.128Z,978.09
2019-05-21T02:45:39.027Z,978.08
2019-05-21T02:46:37.929Z,978.05
2019-05-21T02:47:37.848Z,978.07
2019-05-21T02:48:37.774Z,978.08
2019-05-21T02:49:37.681Z,978.02
2019-05-21T02:50:37.605Z,978.08
2019-05-21T02:51:38.512Z,978.10
2019-05-21T02:52:37.420Z,978.10
2019-05-21T02:53:37.344Z,978.07
2019-05-21T02:54:41.330Z,978.07
2019-05-21T02:55:37.156Z,978.03
2019-05-21T02:56:37.103Z,978.03
2019-05-21T02:57:37.986Z,978.04
2019-05-21T02:58:36.894Z,978.04
2019-05-21T02:59:36.807Z,978.02
2019-05-21T03:00:38.813Z,978.04
2019-05-21T03:01:36.632Z,978.01
2019-05-21T03:02:36.547Z,978.03
2019-05-21T03:03:37.464Z,978.08
2019-05-21T03:04:36.374Z,978.03
2019-05-21T03:05:36.290Z,978.10
2019-05-21T03:06:36.199Z,978.07
2019-05-21T03:07:36.110Z,978.08
2019-05-21T03:08:36.035Z,978.08
2019-05-21T03:09:36.959Z,978.11
2019-05-21T03:10:35.854Z,978.13
2019-05-21T03:11:35.759Z,978.09
2019-05-21T03:12:35.674Z,978.15
2019-05-21T03:13:35.585Z,978.16
2019-05-21T03:14:35.500Z,978.21
2019-05-21T03:15:36.443Z,978.18
2019-05-21T03:16:35.333Z,978.24
2019-05-21T03:17:35.243Z,978.24
2019-05-21T03:18:35.183Z,978.23
2019-05-21T03:19:35.076Z,978.31
2019-05-21T03:20:34.982Z,978.25
2019-05-21T03:21:35.924Z,978.28
2019-05-21T03:22:34.829Z,978.26
2019-05-21T03:23:34.745Z,978.26
2019-05-21T03:24:34.629Z,978.25
2019-05-21T03:25:34.549Z,978.31
2019-05-21T03:26:34.464Z,978.32
2019-05-21T03:27:35.379Z,978.28
2019-05-21T03:28:34.297Z,978.27
2019-05-21T03:29:34.205Z,978.28
2019-05-21T03:30:34.125Z,978.29
2019-05-21T03:31:34.025Z,978.31
2019-05-21T03:32:33.962Z,978.33
2019-05-21T03:33:34.883Z,978.35
2019-05-21T03:34:33.759Z,978.36
2019-05-21T03:35:33.686Z,978.33
2019-05-21T03:36:34.443Z,978.37
2019-05-21T03:37:33.499Z,978.37
2019-05-21T03:38:33.418Z,978.38
2019-05-21T03:39:34.339Z,978.36
2019-05-21T03:40:33.264Z,978.40
2019-05-21T03:41:33.156Z,978.35
2019-05-21T03:42:33.094Z,978.42
2019-05-21T03:43:32.998Z,978.40
2019-05-21T03:44:32.911Z,978.37
2019-05-21T03:45:33.852Z,978.38
2019-05-21T03:46:32.726Z,978.40
2019-05-21T03:47:32.642Z,978.37
2019-05-21T03:48:32.558Z,978.45
2019-05-21T03:49:32.498Z,978.39
2019-05-21T03:50:32.384Z,978.41
2019-05-21T03:51:33.303Z,978.41
2019-05-21T03:52:32.221Z,978.41
2019-05-21T03:53:32.132Z,978.37
2019-05-21T03:54:32.054Z,978.40
2019-05-21T03:55:31.954Z,978.41
2019-05-21T03:56:31.859Z,978.41
2019-05-21T03:57:32.784Z,978.36
2019-05-21T03:58:31.682Z,978.43
2019-05-21T03:59:31.595Z,978.39
2019-05-21T04:00:31.519Z,978.43
2019-05-21T04:01:31.424Z,978.43
2019-05-21T04:02:31.327Z,978.38
2019-05-21T04:03:32.262Z,978.43
2019-05-21T04:04:31.178Z,978.40
2019-05-21T04:05:31.071Z,978.40
2019-05-21T04:06:30.987Z,978.46
2019-05-21T04:07:30.925Z,978.45
2019-05-21T04:08:32.926Z,978.46
2019-05-21T04:09:31.817Z,978.45
2019-05-21T04:10:30.687Z,978.51
2019-05-21T04:11:30.559Z,978.47
2019-05-21T04:12:30.479Z,978.44
2019-05-21T04:13:30.385Z,978.56
2019-05-21T04:14:30.282Z,978.49
2019-05-21T04:15:31.212Z,978.46
2019-05-21T04:16:30.112Z,978.51
2019-05-21T04:17:34.366Z,978.56
2019-05-21T04:18:29.948Z,978.62
2019-05-21T04:19:29.856Z,978.58
2019-05-21T04:20:29.778Z,978.59
2019-05-21T04:21:30.703Z,978.59
2019-05-21T04:22:29.634Z,978.61
2019-05-21T04:23:29.535Z,978.65
2019-05-21T04:24:29.427Z,978.61
2019-05-21T04:25:29.341Z,978.60
2019-05-21T04:26:29.274Z,978.69
2019-05-21T04:27:30.180Z,978.72
2019-05-21T04:28:29.081Z,978.68
2019-05-21T04:29:28.994Z,978.69
2019-05-21T04:30:28.893Z,978.70
2019-05-21T04:31:28.809Z,978.76
2019-05-21T04:32:28.751Z,978.76
2019-05-21T04:33:29.643Z,978.78
2019-05-21T04:34:28.555Z,978.75
2019-05-21T04:35:28.474Z,978.77
2019-05-21T04:36:28.407Z,978.75
2019-05-21T04:37:28.308Z,978.74
2019-05-21T04:38:28.196Z,978.72
2019-05-21T04:39:29.125Z,978.74
2019-05-21T04:40:28.050Z,978.75
2019-05-21T04:41:27.942Z,978.75
2019-05-21T04:42:27.857Z,978.77
2019-05-21T04:43:27.786Z,978.77
2019-05-21T04:44:27.681Z,978.80
2019-05-21T04:45:28.613Z,978.78
2019-05-21T04:46:27.510Z,978.81
2019-05-21T04:47:27.423Z,978.82
2019-05-21T04:48:27.331Z,978.85
2019-05-21T04:49:27.246Z,978.83
2019-05-21T04:50:27.176Z,978.85
2019-05-21T04:51:28.113Z,978.82
2019-05-21T04:52:27.005Z,978.84
2019-05-21T04:53:26.898Z,978.89
2019-05-21T04:54:26.845Z,978.88
2019-05-21T04:55:26.762Z,978.85
2019-05-21T04:56:26.641Z,978.90
2019-05-21T04:57:27.562Z,978.90
2019-05-21T04:58:26.496Z,978.95
2019-05-21T04:59:26.381Z,978.94
2019-05-21T05:00:26.298Z,978.97
2019-05-21T05:01:26.221Z,978.99
2019-05-21T05:02:26.118Z,979.03
2019-05-21T05:03:27.040Z,978.97
2019-05-21T05:04:25.946Z,979.04
2019-05-21T05:05:25.865Z,979.03
2019-05-21T05:06:25.828Z,979.04
2019-05-21T05:07:28.586Z,979.05
2019-05-21T05:08:25.610Z,979.07
2019-05-21T05:09:26.526Z,979.09
2019-05-21T05:10:25.460Z,979.11
2019-05-21T05:11:25.351Z,979.07
2019-05-21T05:12:25.260Z,979.10
2019-05-21T05:13:25.159Z,979.13
2019-05-21T05:14:25.081Z,979.15
2019-05-21T05:15:26.014Z,979.15
2019-05-21T05:16:24.908Z,979.18
2019-05-21T05:17:24.817Z,979.17
2019-05-21T05:18:24.751Z,979.17
2019-05-21T05:19:24.673Z,979.21
2019-05-21T05:20:24.551Z,979.26
2019-05-21T05:21:25.494Z,979.22
2019-05-21T05:22:24.406Z,979.24
2019-05-21T05:23:24.303Z,979.28
2019-05-21T05:24:24.219Z,979.32
2019-05-21T05:25:24.137Z,979.33
2019-05-21T05:26:24.062Z,979.31
2019-05-21T05:27:24.970Z,979.33
2019-05-21T05:28:23.859Z,979.37
2019-05-21T05:29:23.783Z,979.36
2019-05-21T05:30:23.746Z,979.40
2019-05-21T05:31:23.609Z,979.37
2019-05-21T05:32:23.543Z,979.39
2019-05-21T05:33:24.474Z,979.38
2019-05-21T05:34:23.419Z,979.43
2019-05-21T05:35:23.263Z,979.41
2019-05-21T05:36:23.165Z,979.44
2019-05-21T05:37:23.079Z,979.45
2019-05-21T05:38:23.015Z,979.47
2019-05-21T05:39:23.942Z,979.47
2019-05-21T05:40:22.833Z,979.47
2019-05-21T05:41:22.744Z,979.49
2019-05-21T05:42:22.685Z,979.52
2019-05-21T05:43:22.594Z,979.52
2019-05-21T05:44:22.485Z,979.55
2019-05-21T05:45:23.423Z,979.54
2019-05-21T05:46:22.315Z,979.61
2019-05-21T05:47:22.219Z,979.64
2019-05-21T05:48:22.145Z,979.68
2019-05-21T05:49:22.041Z,979.63
2019-05-21T05:50:21.955Z,979.62
2019-05-21T05:51:22.885Z,979.65
2019-05-21T05:52:21.795Z,979.67
2019-05-21T05:53:21.727Z,979.69
2019-05-21T05:54:21.613Z,979.69
2019-05-21T05:55:21.530Z,979.67
2019-05-21T05:56:21.461Z,979.68
2019-05-21T05:57:22.363Z,979.71
2019-05-21T05:58:21.282Z,979.74
2019-05-21T05:59:21.175Z,979.73
2019-05-21T06:00:21.114Z,979.73
2019-05-21T06:01:21.003Z,979.76
2019-05-21T06:02:20.923Z,979.75
2019-05-21T06:03:21.848Z,979.79
2019-05-21T06:04:20.778Z,979.81
2019-05-21T06:05:20.665Z,979.80
2019-05-21T06:06:20.622Z,979.76
2019-05-21T06:07:20.515Z,979.74
2019-05-21T06:08:20.428Z,979.75
2019-05-21T06:09:21.356Z,979.78
2019-05-21T06:10:20.228Z,979.79
2019-05-21T06:11:20.170Z,979.76
2019-05-21T06:12:20.085Z,979.81
2019-05-21T06:13:19.975Z,979.80
2019-05-21T06:14:19.893Z,979.82
2019-05-21T06:15:20.813Z,979.86
2019-05-21T06:16:19.719Z,979.89
2019-05-21T06:17:19.634Z,979.83
2019-05-21T06:18:19.564Z,979.88
2019-05-21T06:19:19.462Z,979.90
2019-05-21T06:20:19.395Z,979.91
2019-05-21T06:21:20.380Z,979.93
2019-05-21T06:22:19.195Z,979.91
2019-05-21T06:23:19.127Z,979.94
2019-05-21T06:24:19.026Z,979.95
2019-05-21T06:25:18.964Z,979.90
2019-05-21T06:26:18.868Z,979.92
2019-05-21T06:27:19.803Z,979.91
2019-05-21T06:28:18.714Z,979.88
2019-05-21T06:29:18.655Z,979.89
2019-05-21T06:30:18.542Z,979.92
2019-05-21T06:31:18.434Z,979.91
2019-05-21T06:32:18.497Z,979.91
2019-05-21T06:33:19.259Z,979.89
2019-05-21T06:34:18.194Z,979.87
2019-05-21T06:35:18.092Z,979.87
2019-05-21T06:36:18.005Z,979.82
2019-05-21T06:37:17.970Z,979.86
2019-05-21T06:38:18.440Z,979.85
2019-05-21T06:39:18.760Z,979.89
2019-05-21T06:40:17.680Z,979.89
2019-05-21T06:41:17.590Z,979.87
2019-05-21T06:42:17.511Z,979.90
2019-05-21T06:43:17.398Z,979.94
2019-05-21T06:44:17.348Z,979.95
2019-05-21T06:45:18.270Z,979.94
2019-05-21T06:46:17.150Z,979.98
2019-05-21T06:47:17.083Z,979.97
2019-05-21T06:48:17.022Z,979.94
2019-05-21T06:49:16.894Z,979.99
2019-05-21T06:50:16.837Z,980.05
2019-05-21T06:51:17.919Z,980.07
2019-05-21T06:52:16.660Z,980.05
2019-05-21T06:53:16.576Z,980.07
2019-05-21T06:54:16.472Z,980.10
2019-05-21T06:55:16.379Z,980.08
2019-05-21T06:56:16.291Z,980.12
2019-05-21T06:57:17.222Z,980.10
2019-05-21T06:58:16.148Z,980.13
2019-05-21T06:59:16.043Z,980.14
2019-05-21T07:00:15.970Z,980.19
2019-05-21T07:01:15.907Z,980.17
2019-05-21T07:02:15.794Z,980.18
2019-05-21T07:03:16.722Z,980.21
2019-05-21T07:04:15.771Z,980.23
2019-05-21T07:05:15.536Z,980.22
2019-05-21T07:06:15.445Z,980.24
2019-05-21T07:07:15.447Z,980.24
2019-05-21T07:08:15.277Z,980.22
2019-05-21T07:09:16.227Z,980.28
2019-05-21T07:10:15.142Z,980.29
2019-05-21T07:11:15.030Z,980.33
2019-05-21T07:12:14.958Z,980.30
2019-05-21T07:13:14.863Z,980.34
2019-05-21T07:14:14.770Z,980.31
2019-05-21T07:15:16.371Z,980.30
2019-05-21T07:16:14.604Z,980.32
2019-05-21T07:17:14.514Z,980.30
2019-05-21T07:18:14.424Z,980.30
2019-05-21T07:19:14.353Z,980.35
2019-05-21T07:20:14.273Z,980.39
2019-05-21T07:21:15.235Z,980.43
2019-05-21T07:22:14.108Z,980.41
2019-05-21T07:23:14.004Z,980.44
2019-05-21T07:24:13.932Z,980.41
2019-05-21T07:25:13.943Z,980.47
2019-05-21T07:26:13.759Z,980.46
2019-05-21T07:27:14.696Z,980.50
2019-05-21T07:28:13.571Z,980.48
2019-05-21T07:29:13.499Z,980.42
2019-05-21T07:30:13.404Z,980.47
2019-05-21T07:31:17.215Z,980.49
2019-05-21T07:32:13.258Z,980.49
2019-05-21T07:33:14.380Z,980.57
2019-05-21T07:34:13.073Z,980.58
2019-05-21T07:35:12.975Z,980.64
2019-05-21T07:36:12.894Z,980.59
2019-05-21T07:37:12.820Z,980.65
2019-05-21T07:38:12.726Z,980.68
2019-05-21T07:39:13.648Z,980.71
2019-05-21T07:40:12.578Z,980.68
2019-05-21T07:41:12.489Z,980.73
2019-05-21T07:42:12.387Z,980.75
2019-05-21T07:43:12.301Z,980.75
2019-05-21T07:44:12.217Z,980.78
2019-05-21T07:45:13.144Z,980.78
2019-05-21T07:46:12.051Z,980.84
2019-05-21T07:47:11.985Z,980.85
2019-05-21T07:48:11.877Z,980.87
2019-05-21T07:49:11.790Z,980.86
2019-05-21T07:50:11.706Z,980.86
2019-05-21T07:51:12.652Z,980.87
2019-05-21T07:52:11.536Z,980.88
2019-05-21T07:53:11.468Z,980.86
2019-05-21T07:54:11.414Z,980.91
2019-05-21T07:55:11.303Z,980.91
2019-05-21T07:56:11.205Z,980.91
2019-05-21T07:57:12.144Z,980.93
2019-05-21T07:58:11.029Z,980.94
2019-05-21T07:59:10.945Z,980.92
2019-05-21T08:00:10.862Z,980.92
2019-05-21T08:01:10.797Z,980.93
2019-05-21T08:02:10.703Z,980.93
2019-05-21T08:03:11.617Z,980.95
2019-05-21T08:04:10.524Z,980.96
2019-05-21T08:05:10.438Z,980.96
2019-05-21T08:06:10.385Z,980.93
2019-05-21T08:07:10.261Z,980.94
2019-05-21T08:08:10.220Z,980.94
2019-05-21T08:09:13.758Z,980.95
2019-05-21T08:10:10.014Z,980.98
2019-05-21T08:11:09.957Z,980.97
2019-05-21T08:12:27.840Z,980.97
2019-05-21T08:13:09.800Z,980.98
2019-05-21T08:14:09.680Z,981.00
2019-05-21T08:15:10.638Z,980.99
2019-05-21T08:16:09.502Z,980.97
2019-05-21T08:17:09.443Z,980.95
2019-05-21T08:18:09.363Z,980.95
2019-05-21T08:19:09.332Z,980.95
2019-05-21T08:20:10.667Z,980.96
2019-05-21T08:21:10.129Z,980.99
2019-05-21T08:22:09.006Z,981.04
2019-05-21T08:23:08.930Z,981.05
2019-05-21T08:24:08.836Z,981.03
2019-05-21T08:25:08.760Z,981.05
2019-05-21T08:26:08.678Z,981.01
2019-05-21T08:27:09.612Z,981.03
2019-05-21T08:28:08.517Z,981.02
2019-05-21T08:29:08.434Z,981.09
2019-05-21T08:30:08.383Z,981.04
2019-05-21T08:31:08.265Z,981.02
2019-05-21T08:32:08.194Z,981.08
2019-05-21T08:33:09.088Z,981.08
2019-05-21T08:34:07.993Z,981.13
2019-05-21T08:35:07.918Z,981.11
2019-05-21T08:36:07.847Z,981.09
2019-05-21T08:37:07.742Z,981.20
2019-05-21T08:38:07.657Z,981.21
2019-05-21T08:39:08.628Z,981.18
2019-05-21T08:40:07.500Z,981.19
2019-05-21T08:41:07.424Z,981.18
2019-05-21T08:42:07.324Z,981.18
2019-05-21T08:43:07.244Z,981.16
2019-05-21T08:44:07.166Z,981.16
2019-05-21T08:45:08.122Z,981.14
2019-05-21T08:46:06.996Z,981.15
2019-05-21T08:47:06.916Z,981.14
2019-05-21T08:48:06.834Z,981.18
2019-05-21T08:49:06.755Z,981.17
2019-05-21T08:50:06.668Z,981.16
2019-05-21T08:51:07.586Z,981.18
2019-05-21T08:52:06.508Z,981.18
2019-05-21T08:53:06.417Z,981.16
2019-05-21T08:54:06.357Z,981.19
2019-05-21T08:55:06.244Z,981.22
2019-05-21T08:56:06.166Z,981.19
2019-05-21T08:57:07.096Z,981.20
2019-05-21T08:58:07.658Z,981.17
2019-05-21T08:59:05.923Z,981.18
2019-05-21T09:00:05.875Z,981.18
2019-05-21T09:01:05.739Z,981.21
2019-05-21T09:02:05.672Z,981.16
2019-05-21T09:03:06.592Z,981.19
2019-05-21T09:04:05.506Z,981.17
2019-05-21T09:05:05.424Z,981.17
2019-05-21T09:06:05.328Z,981.17
2019-05-21T09:07:05.253Z,981.24
2019-05-21T09:08:05.171Z,981.22
2019-05-21T09:09:06.088Z,981.24
2019-05-21T09:10:05.007Z,981.24
2019-05-21T09:11:04.912Z,981.24
2019-05-21T09:12:04.850Z,981.24
2019-05-21T09:13:04.751Z,981.25
2019-05-21T09:14:04.745Z,981.26
2019-05-21T09:15:05.607Z,981.30
2019-05-21T09:16:04.548Z,981.33
2019-05-21T09:17:04.415Z,981.31
2019-05-21T09:18:04.322Z,981.34
2019-05-21T09:19:04.307Z,981.37
2019-05-21T09:20:04.212Z,981.39
2019-05-21T09:21:05.085Z,981.39
2019-05-21T09:22:04.023Z,981.36
2019-05-21T09:23:03.925Z,981.38
2019-05-21T09:24:03.864Z,981.38
2019-05-21T09:25:04.213Z,981.39
2019-05-21T09:26:03.655Z,981.41
2019-05-21T09:27:04.591Z,981.42
2019-05-21T09:28:03.497Z,981.39
2019-05-21T09:29:03.407Z,981.41
2019-05-21T09:30:03.335Z,981.40
2019-05-21T09:31:03.253Z,981.47
2019-05-21T09:32:03.166Z,981.45
2019-05-21T09:33:04.106Z,981.41
2019-05-21T09:34:02.988Z,981.46
2019-05-21T09:35:02.922Z,981.45
2019-05-21T09:36:02.823Z,981.45
2019-05-21T09:37:17.087Z,981.46
2019-05-21T09:38:02.665Z,981.47
2019-05-21T09:39:03.593Z,981.47
2019-05-21T09:40:02.629Z,981.48
2019-05-21T09:41:02.407Z,981.51
2019-05-21T09:42:02.482Z,981.50
2019-05-21T09:43:02.320Z,981.54
2019-05-21T09:44:02.159Z,981.55
2019-05-21T09:45:03.104Z,981.54
2019-05-21T09:46:01.993Z,981.54
2019-05-21T09:47:01.937Z,981.53
2019-05-21T09:48:01.840Z,981.57
2019-05-21T09:49:01.748Z,981.58
2019-05-21T09:50:02.171Z,981.58
2019-05-21T09:51:02.574Z,981.54
2019-05-21T09:52:01.491Z,981.54
2019-05-21T09:53:01.409Z,981.57
2019-05-21T09:54:01.319Z,981.59
2019-05-21T09:55:01.254Z,981.57
2019-05-21T09:56:01.159Z,981.59
2019-05-21T09:57:02.071Z,981.58
2019-05-21T09:58:00.977Z,981.60
2019-05-21T09:59:00.918Z,981.59
2019-05-21T10:00:00.815Z,981.58
2019-05-21T10:01:00.731Z,981.60
2019-05-21T10:02:00.642Z,981.60
2019-05-21T10:03:01.699Z,981.60
2019-05-21T10:04:00.505Z,981.62
2019-05-21T10:05:00.409Z,981.64
2019-05-21T10:06:00.322Z,981.64
2019-05-21T10:07:00.236Z,981.66
2019-05-21T10:08:00.140Z,981.64
2019-05-21T10:09:01.067Z,981.63
2019-05-21T10:09:59.991Z,981.67
2019-05-21T10:10:59.897Z,981.70
2019-05-21T10:11:59.815Z,981.72
2019-05-21T10:12:59.738Z,981.71
2019-05-21T10:13:59.642Z,981.78
2019-05-21T10:15:00.570Z,981.81
2019-05-21T10:16:01.472Z,981.86
2019-05-21T10:16:59.379Z,981.80
2019-05-21T10:17:59.318Z,981.84
2019-05-21T10:18:59.227Z,981.96
2019-05-21T10:19:59.168Z,981.88
2019-05-21T10:21:00.130Z,981.91
2019-05-21T10:21:58.987Z,981.98
2019-05-21T10:22:58.897Z,981.92
2019-05-21T10:23:58.818Z,981.95
2019-05-21T10:24:58.717Z,981.98
2019-05-21T10:25:58.641Z,981.99
2019-05-21T10:27:03.176Z,982.00
2019-05-21T10:27:58.509Z,982.00
2019-05-21T10:28:58.392Z,981.98
2019-05-21T10:29:58.294Z,982.05
2019-05-21T10:30:58.213Z,982.08
2019-05-21T10:31:58.134Z,982.08
2019-05-21T10:32:59.066Z,982.09
2019-05-21T10:33:57.954Z,982.13
2019-05-21T10:34:57.876Z,982.18
2019-05-21T10:35:57.791Z,982.18
2019-05-21T10:36:57.710Z,982.23
2019-05-21T10:37:57.622Z,982.29
2019-05-21T10:38:58.544Z,982.25
2019-05-21T10:39:57.446Z,982.28
2019-05-21T10:40:57.381Z,982.26
2019-05-21T10:41:57.293Z,982.29
2019-05-21T10:42:57.204Z,982.29
2019-05-21T10:43:57.117Z,982.30
2019-05-21T10:44:58.053Z,982.35
2019-05-21T10:45:56.948Z,982.32
2019-05-21T10:46:56.875Z,982.33
2019-05-21T10:47:56.820Z,982.28
2019-05-21T10:48:56.693Z,982.35
2019-05-21T10:49:56.619Z,982.35
2019-05-21T10:50:57.538Z,982.34
2019-05-21T10:51:56.451Z,982.33
2019-05-21T10:52:56.369Z,982.32
2019-05-21T10:53:56.267Z,982.34
2019-05-21T10:54:56.188Z,982.36
2019-05-21T10:55:56.092Z,982.42
2019-05-21T10:56:57.026Z,982.41
2019-05-21T10:57:55.952Z,982.46
2019-05-21T10:58:55.841Z,982.43
2019-05-21T10:59:55.756Z,982.46
2019-05-21T11:00:55.678Z,982.50
2019-05-21T11:01:55.584Z,982.49
2019-05-21T11:02:56.508Z,982.61
2019-05-21T11:03:55.414Z,982.56
2019-05-21T11:04:55.342Z,982.62
2019-05-21T11:06:09.075Z,982.59
2019-05-21T11:06:55.193Z,982.59
2019-05-21T11:07:55.077Z,982.61
2019-05-21T11:08:56.042Z,982.57
2019-05-21T11:09:55.108Z,982.60
2019-05-21T11:10:54.819Z,982.65
2019-05-21T11:11:54.734Z,982.67
2019-05-21T11:12:54.671Z,982.68
2019-05-21T11:13:54.582Z,982.69
2019-05-21T11:14:55.492Z,982.72
2019-05-21T11:15:54.419Z,982.76
2019-05-21T11:16:54.318Z,982.78
2019-05-21T11:18:09.818Z,982.75
2019-05-21T11:18:54.140Z,982.83
2019-05-21T11:19:54.063Z,982.84
2019-05-21T11:20:54.979Z,982.84
2019-05-21T11:21:53.887Z,982.89
2019-05-21T11:22:53.803Z,982.89
2019-05-21T11:23:53.722Z,982.83
2019-05-21T11:24:53.655Z,982.85
2019-05-21T11:25:53.552Z,982.92
2019-05-21T11:26:54.461Z,982.84
2019-05-21T11:27:53.386Z,982.95
2019-05-21T11:28:53.285Z,982.90
2019-05-21T11:29:53.203Z,982.89
2019-05-21T11:30:53.107Z,982.88
2019-05-21T11:31:57.092Z,982.95
2019-05-21T11:32:53.952Z,982.90
2019-05-21T11:33:52.853Z,982.88
2019-05-21T11:34:52.777Z,982.89
2019-05-21T11:35:52.685Z,982.87
2019-05-21T11:36:52.592Z,982.90
2019-05-21T11:37:52.521Z,982.90
2019-05-21T11:38:53.448Z,982.95
2019-05-21T11:39:52.335Z,982.92
2019-05-21T11:40:52.270Z,982.98
2019-05-21T11:41:52.187Z,983.03
2019-05-21T11:42:53.075Z,983.00
2019-05-21T11:43:52.012Z,982.99
2019-05-21T11:44:52.930Z,983.06
2019-05-21T11:45:51.821Z,983.04
2019-05-21T11:46:51.746Z,983.08
2019-05-21T11:47:54.531Z,983.07
2019-05-21T11:48:51.574Z,983.06
2019-05-21T11:49:51.499Z,983.05
2019-05-21T11:50:52.408Z,983.04
2019-05-21T11:51:51.336Z,983.09
2019-05-21T11:52:51.233Z,983.12
2019-05-21T11:53:51.374Z,983.10
2019-05-21T11:54:51.056Z,983.11
2019-05-21T11:55:50.975Z,983.09
2019-05-21T11:56:51.895Z,983.11
2019-05-21T11:57:50.795Z,983.13
2019-05-21T11:58:50.712Z,983.14
2019-05-21T11:59:50.638Z,983.14
2019-05-21T12:00:50.586Z,983.19
2019-05-21T12:01:50.452Z,983.13
2019-05-21T12:02:51.388Z,983.15
2019-05-21T12:03:50.285Z,983.14
2019-05-21T12:04:50.196Z,983.12
2019-05-21T12:05:50.125Z,983.13
2019-05-21T12:06:50.025Z,983.12
2019-05-21T12:07:49.935Z,983.10
2019-05-21T12:08:56.977Z,983.15
2019-05-21T12:09:49.777Z,983.21
2019-05-21T12:10:49.684Z,983.19
2019-05-21T12:11:49.596Z,983.18
2019-05-21T12:12:49.533Z,983.20
2019-05-21T12:13:49.463Z,983.22
2019-05-21T12:14:50.347Z,983.20
2019-05-21T12:15:49.257Z,983.32
2019-05-21T12:16:49.166Z,983.17
2019-05-21T12:17:49.076Z,983.19
2019-05-21T12:18:49.019Z,983.22
2019-05-21T12:19:48.951Z,983.18
2019-05-21T12:20:49.879Z,983.20
2019-05-21T12:21:48.735Z,983.18
2019-05-21T12:22:48.666Z,983.17
2019-05-21T12:23:48.567Z,983.18
2019-05-21T12:24:48.496Z,983.16
2019-05-21T12:25:48.388Z,983.20
2019-05-21T12:26:49.313Z,983.22
2019-05-21T12:27:48.225Z,983.25